• Join FlightAware (Why Join?)
  • Login
  • US Flag 
10:54PM EDT


 

Airport Tracker/Info


-or-


 

Live Flight TrackerFlight Track Log ✈ BJS542 ✈ 09-May-2013 ✈ KVRB - KPDK

Flight Track Log - Related Links

Times and Time Zones

All times are in EDT time to prevent confusion due to time zone crossing. See the BJS542 flight status page for this flight to view local times or setup timezone preferences in your user account.

Time Position Orientation Groundspeed Altitude Reporting Facility
EDT Latitude Longitude Course Direction KTS MPH feet Rate Location/Type
01:39PM 27.6436 -80.3872 319° Northwest 430 495 1,800  Level Miami Center
01:40PM 27.6372 -80.3119 95° East 320 368 3,900 1,140 Climbing Miami Center
01:41PM 27.7019 -80.3022 North 222 255 4,100 1,800 Climbing Miami Center
01:42PM 27.7253 -80.3781 289° West 160 184 7,600 3,720 Climbing Miami Center
01:43PM 27.7481 -80.4703 286° West 256 295 11,600 3,480 Climbing Miami Center
01:44PM 28.1945 -80.9778 319° Northwest  Level FlightAware Approximate
01:44PM 27.7706 -80.5694 284° West 319 367 14,600  Level Miami Center
01:45PM 27.7928 -80.6781 283° West 349 402 17,800 3,120 Climbing Miami Center
01:46PM 27.8147 -80.7917 282° West 363 418 20,900 2,520 Climbing Miami Center
01:47PM 27.8647 -80.8731 305° West 354 407 22,900 1,200 Climbing Miami Center
01:48PM 27.9653 -80.9378 330° Northwest 380 437 23,400 1,020 Climbing Miami Center
01:49PM 28.0589 -81.0189 323° Northwest 401 461 25,000 2,220 Climbing Miami Center
01:50PM 28.1389 -81.1347 308° West 412 474 27,900 2,640 Climbing Miami Center
01:51PM 28.2347 -81.2136 324° Northwest 423 487 30,300 2,040 Climbing Miami Center
01:52PM 28.3303 -81.2928 324° Northwest 428 493 32,000 1,800 Climbing Miami Center
01:53PM 28.4392 -81.3467 336° Northwest 418 481 33,900 1,860 Climbing Miami Center
01:54PM 28.5644 -81.3400 North 417 480 35,800 1,740 Climbing Miami Center
01:54PM 28.6228 -81.3458 355° North 425 489 36,500 1,620 Climbing Jacksonville Center
01:55PM 28.7458 -81.3558 356° North 462 532 38,200 1,200 Climbing Jacksonville Center
01:56PM 28.8650 -81.3681 355° North 456 525 39,000 360 Climbing Jacksonville Center
01:57PM 28.9903 -81.3806 355° North 437 503 39,000  Level Jacksonville Center
01:58PM 29.1117 -81.3975 353° North 437 503 39,000  Level Jacksonville Center
01:59PM 29.1997 -81.4294 342° North 416 479 39,000 1,020 Level Jacksonville Center
02:00PM 29.3172 -81.4778 340° North 416 479 41,100 1,680 Climbing Jacksonville Center
02:01PM 29.4200 -81.5192 341° North 404 465 42,400 900 Climbing Jacksonville Center
02:02PM 29.5225 -81.5608 341° North 393 452 43,000 300 Climbing Jacksonville Center
02:03PM 29.6275 -81.6025 341° North 393 452 43,000  Level Jacksonville Center
02:04PM 29.7364 -81.6464 341° North 398 458 43,000  Level Jacksonville Center
02:05PM 29.8475 -81.6928 340° North 408 470 43,000  Level Jacksonville Center
02:06PM 29.9564 -81.7369 341° North 408 470 43,000  Level Jacksonville Center
02:07PM 30.0694 -81.7764 343° North 413 475 43,000  Level Jacksonville Center
02:08PM 30.1764 -81.8233 339° North 413 475 43,000  Level Jacksonville Center
02:09PM 30.2853 -81.8653 342° North 406 467 43,000  Level Jacksonville Center
02:10PM 30.3922 -81.9100 340° North 406 467 43,000  Level Jacksonville Center
02:11PM 30.5031 -81.9569 340° North 412 474 43,000 -300 Level Jacksonville Center
02:12PM 30.6247 -82.0114 339° North 412 474 42,500 -840 Descending Jacksonville Center
02:13PM 30.7336 -82.0564 340° North 412 474 41,400 -1,020 Descending Jacksonville Center
02:14PM 30.8486 -82.1036 341° North 417 480 40,500 -1,020 Descending Jacksonville Center
02:15PM 30.9556 -82.1514 339° North 417 480 39,400 -1,080 Descending Jacksonville Center
02:16PM 31.0600 -82.1964 340° North 406 467 38,400 -1,020 Descending Jacksonville Center
02:17PM 31.1628 -82.2369 341° North 399 459 37,400 -960 Descending Jacksonville Center
02:18PM 31.2672 -82.2800 341° North 394 453 36,500 -1,020 Descending Jacksonville Center
02:19PM 31.3781 -82.3281 340° North 399 459 35,400 -1,080 Descending Jacksonville Center
02:21PM 31.5792 -82.4081 341° North 435 501 33,700 -900 Descending Atlanta Center
02:22PM 31.6969 -82.4597 340° North 445 512 33,000 -360 Descending Atlanta Center
02:23PM 31.8144 -82.5089 340° North 445 512 33,000  Level Atlanta Center
02:24PM 31.9278 -82.5583 340° North 445 512 33,000  Level Atlanta Center
02:25PM 32.0389 -82.6128 337° Northwest 438 504 33,000  Level Atlanta Center
02:26PM 32.1378 -82.6875 327° Northwest 429 494 33,000 -600 Level Atlanta Center
02:27PM 32.2389 -82.7644 327° Northwest 424 488 31,800 -1,500 Descending Atlanta Center
02:28PM 32.3378 -82.8417 327° Northwest 429 494 30,100 -1,680 Descending Atlanta Center
02:29PM 32.4367 -82.9192 327° Northwest 429 494 28,500 -1,620 Descending Atlanta Center
02:30PM 32.5353 -82.9942 327° Northwest 424 488 26,900 -1,620 Descending Atlanta Center
02:31PM 32.6342 -83.0694 327° Northwest 424 488 25,300 -1,800 Descending Atlanta Center
02:32PM 32.7306 -83.1475 326° Northwest 424 488 23,300 -2,280 Descending Atlanta Center
02:33PM 32.8147 -83.2133 327° Northwest 419 482 20,800 -2,700 Descending Atlanta Center
02:34PM 32.9175 -83.2889 328° Northwest 419 482 17,900 -1,920 Descending Atlanta Center
02:35PM 33.0033 -83.3625 324° Northwest 400 460 17,000 -480 Descending Atlanta Center
02:36PM 33.0914 -83.4289 328° Northwest 376 433 17,000 -480 Level Atlanta Center
02:37PM 33.1753 -83.4928 327° Northwest 376 433 16,100 -1,440 Descending Atlanta Center
02:38PM 33.2528 -83.5544 326° Northwest 350 403 14,200 -1,740 Descending Atlanta Center
02:39PM 33.3156 -83.6064 325° Northwest 326 375 12,700 -1,560 Descending Atlanta Center
02:40PM 33.3825 -83.6608 326° Northwest 302 348 11,100 -2,040 Descending Atlanta Center
02:41PM 33.4556 -83.7003 336° Northwest 287 330 8,700 -2,700 Descending Atlanta Center
02:42PM 33.5267 -83.7372 337° Northwest 279 321 5,800 -1,980 Descending Atlanta Center
02:43PM 33.5853 -83.7694 335° Northwest 259 298 4,800 -900 Descending Atlanta Center
02:44PM 33.6478 -83.8017 337° Northwest 242 278 4,000 -420 Descending Atlanta Center
02:45PM 33.7044 -83.8342 334° Northwest 231 266 4,000  Level Atlanta Center
02:46PM 33.7567 -83.8764 326° Northwest 226 260 4,000  Level Atlanta Center
02:48PM 33.8333 -83.9667 316° Northwest 228 262 4,000 -120 Level Atlanta TRACON
02:49PM 33.8833 -84.0167 320° Northwest 228 262 3,800 -540 Descending Atlanta TRACON
02:50PM 33.9167 -84.0833 301° West 217 250 3,000 -420 Descending Atlanta TRACON
02:51PM 33.9333 -84.1500 287° West 229 264 3,000 -180 Level Atlanta TRACON
02:52PM 33.9333 -84.2167 270° West 172 198 2,700 -480 Descending Atlanta TRACON
02:53PM 33.9167 -84.2667 248° West 152 175 2,000 -720 Descending Atlanta TRACON
02:55PM 33.8667 -84.3000 220° Southwest  Level FlightAware Approximate
03:02PM 33.8756 -84.3020 220° Southwest  Level Estimated
03:03PM 33.8756 -84.3020 220° Southwest  Level Estimated